createdAt,value
2022-09-03T00:03:51.590Z,2.15
2022-09-03T00:09:00.293Z,2.28
2022-09-03T00:14:07.192Z,2.30
2022-09-03T00:19:09.161Z,2.20
2022-09-03T00:24:15.178Z,2.20
2022-09-03T00:29:21.436Z,2.17
2022-09-03T00:34:39.206Z,2.58
2022-09-03T00:39:41.330Z,3.03
2022-09-03T00:44:55.198Z,2.90
2022-09-03T00:50:07.491Z,2.67
2022-09-03T00:55:22.807Z,2.65
2022-09-03T01:00:24.620Z,3.25
2022-09-03T01:05:37.497Z,2.58
2022-09-03T01:10:53.389Z,2.55
2022-09-03T01:16:13.337Z,2.40
2022-09-03T01:21:36.563Z,2.33
2022-09-03T01:26:47.190Z,2.30
2022-09-03T01:32:00.831Z,2.30
2022-09-03T01:37:21.329Z,2.17
2022-09-03T01:42:38.126Z,2.23
2022-09-03T01:47:51.630Z,2.25
2022-09-03T01:53:04.030Z,2.33
2022-09-03T01:58:36.037Z,2.47
2022-09-03T02:03:42.644Z,2.00
2022-09-03T02:08:44.683Z,2.22
2022-09-03T02:13:52.669Z,1.92
2022-09-03T02:19:00.771Z,2.20
2022-09-03T02:24:05.131Z,2.20
2022-09-03T02:29:06.544Z,2.30
2022-09-03T02:34:08.028Z,2.30
2022-09-03T02:39:09.585Z,2.35
2022-09-03T02:44:26.212Z,2.25
2022-09-03T02:49:28.615Z,2.17
2022-09-03T02:54:31.182Z,1.90
2022-09-03T02:59:35.359Z,2.30
2022-09-03T03:04:37.121Z,1.73
2022-09-03T03:09:38.540Z,2.35
2022-09-03T03:14:39.933Z,2.08
2022-09-03T03:19:41.413Z,1.75
2022-09-03T03:24:43.006Z,1.92
2022-09-03T03:29:44.452Z,1.70
2022-09-03T03:34:45.874Z,2.10
2022-09-03T03:39:47.326Z,1.95
2022-09-03T03:44:48.803Z,2.03
2022-09-03T03:49:50.227Z,1.90
2022-09-03T03:54:52.497Z,1.92
2022-09-03T03:59:56.923Z,1.88
2022-09-03T04:04:58.377Z,2.00
2022-09-03T04:10:00.416Z,1.95
2022-09-03T04:15:01.863Z,1.75
2022-09-03T04:20:04.504Z,2.10
2022-09-03T04:25:06.116Z,2.22
2022-09-03T04:30:08.159Z,1.60
2022-09-03T04:35:09.887Z,1.77
2022-09-03T04:40:11.455Z,1.88
2022-09-03T04:45:18.461Z,2.13
2022-09-03T04:50:19.874Z,1.90
2022-09-03T04:55:21.265Z,1.95
2022-09-03T05:00:22.649Z,1.70
2022-09-03T05:05:24.096Z,2.05
2022-09-03T05:10:25.634Z,2.20
2022-09-03T05:15:28.273Z,1.90
2022-09-03T05:20:31.026Z,2.13
2022-09-03T05:25:32.534Z,2.05
2022-09-03T05:30:33.941Z,1.90
2022-09-03T05:35:35.359Z,1.90
2022-09-03T05:40:36.740Z,2.00
2022-09-03T05:50:40.013Z,2.00
2022-09-03T05:55:41.738Z,2.25
2022-09-03T06:00:43.109Z,2.03
2022-09-03T06:05:51.791Z,2.20
2022-09-03T06:10:59.254Z,2.22
2022-09-03T06:16:04.434Z,1.90
2022-09-03T06:21:07.796Z,1.98
2022-09-03T06:26:14.414Z,2.28
2022-09-03T06:31:18.341Z,1.90
2022-09-03T06:36:20.946Z,2.67
2022-09-03T06:41:33.006Z,1.70
2022-09-03T06:46:38.723Z,2.33
2022-09-03T06:51:40.655Z,1.80
2022-09-03T06:56:42.067Z,1.98
2022-09-03T07:01:46.271Z,1.90
2022-09-03T07:06:48.403Z,2.20
2022-09-03T07:11:49.861Z,1.88
2022-09-03T07:16:51.417Z,2.35
2022-09-03T07:21:52.861Z,1.75
2022-09-03T07:26:54.874Z,2.00
2022-09-03T07:31:56.911Z,1.75
2022-09-03T07:36:58.920Z,2.00
2022-09-03T07:42:00.801Z,1.80
2022-09-03T07:47:03.236Z,1.90
2022-09-03T07:52:04.753Z,1.73
2022-09-03T07:57:06.159Z,1.70
2022-09-03T08:02:07.727Z,1.92
2022-09-03T08:07:09.364Z,1.63
2022-09-03T08:12:10.967Z,1.70
2022-09-03T08:17:13.406Z,2.00
2022-09-03T08:22:15.080Z,1.60
2022-09-03T08:27:16.544Z,2.08
2022-09-03T08:32:17.947Z,1.83
2022-09-03T08:37:19.372Z,1.85
2022-09-03T08:42:39.746Z,1.70
2022-09-03T08:47:49.556Z,1.75
2022-09-03T08:52:59.475Z,1.60
2022-09-03T08:58:06.243Z,1.70
2022-09-03T09:03:45.074Z,1.65
2022-09-03T09:08:53.111Z,1.58
2022-09-03T09:14:02.778Z,1.80
2022-09-03T09:19:11.836Z,1.70
2022-09-03T09:24:23.272Z,1.90
2022-09-03T09:29:29.686Z,1.95
2022-09-03T09:34:37.084Z,1.60
2022-09-03T09:39:39.556Z,1.60
2022-09-03T09:44:43.353Z,1.85
2022-09-03T09:49:53.831Z,1.70
2022-09-03T09:55:08.446Z,1.80
2022-09-03T10:00:16.481Z,1.92
2022-09-03T10:05:24.912Z,1.63
2022-09-03T10:10:29.122Z,1.80
2022-09-03T10:15:43.038Z,1.90
2022-09-03T10:20:52.257Z,1.60
2022-09-03T10:26:07.114Z,2.08
2022-09-03T10:31:26.791Z,1.80
2022-09-03T10:36:46.218Z,1.63
2022-09-03T10:42:03.582Z,1.70
2022-09-03T10:47:13.875Z,2.03
2022-09-03T10:52:27.718Z,1.95
2022-09-03T10:57:53.622Z,1.95
2022-09-03T11:03:10.366Z,2.00
2022-09-03T11:08:24.331Z,1.90
2022-09-03T11:13:35.695Z,2.00
2022-09-03T11:18:43.361Z,2.08
2022-09-03T11:23:55.055Z,2.05
2022-09-03T11:29:15.333Z,2.40
2022-09-03T11:34:23.580Z,1.90
2022-09-03T11:39:39.908Z,2.17
2022-09-03T11:44:47.989Z,2.45
2022-09-03T11:50:05.063Z,2.40
2022-09-03T11:55:07.833Z,2.17
2022-09-03T12:00:13.986Z,2.40
2022-09-03T12:05:48.387Z,2.10
2022-09-03T12:11:09.695Z,2.00
2022-09-03T12:16:19.956Z,2.22
2022-09-03T12:21:21.611Z,2.35
2022-09-03T12:26:26.172Z,2.10
2022-09-03T12:31:30.108Z,2.30
2022-09-03T12:36:38.973Z,2.20
2022-09-03T12:42:01.830Z,2.17
2022-09-03T12:47:36.365Z,2.10
2022-09-03T12:52:45.113Z,2.50
2022-09-03T12:57:57.902Z,1.92
2022-09-03T13:03:08.988Z,2.25
2022-09-03T13:08:18.737Z,1.98
2022-09-03T13:13:20.071Z,1.90
2022-09-03T13:18:54.065Z,2.25
2022-09-03T13:24:13.481Z,2.10
2022-09-03T13:29:26.829Z,2.17
2022-09-03T13:34:33.241Z,2.42
2022-09-03T13:39:52.528Z,1.73
2022-09-03T13:45:06.648Z,2.10
2022-09-03T13:50:26.636Z,2.28
2022-09-03T13:55:31.018Z,2.35
2022-09-03T14:00:38.737Z,2.42
2022-09-03T14:05:55.973Z,2.33
2022-09-03T14:11:18.893Z,2.40
2022-09-03T14:16:35.527Z,2.65
2022-09-03T14:21:47.715Z,2.42
2022-09-03T14:26:59.000Z,2.50
2022-09-03T14:32:22.854Z,2.20
2022-09-03T14:37:42.981Z,2.40
2022-09-03T14:43:05.594Z,2.50
2022-09-03T14:48:54.811Z,3.30
2022-09-03T14:54:12.687Z,2.17
2022-09-03T14:59:28.835Z,2.40
2022-09-03T15:04:49.952Z,2.33
2022-09-03T15:10:16.837Z,2.20
2022-09-03T15:15:23.621Z,2.40
2022-09-03T15:20:43.994Z,2.63
2022-09-03T15:25:57.198Z,2.40
2022-09-03T15:31:32.076Z,2.30
2022-09-03T15:36:41.294Z,2.72
2022-09-03T15:42:27.273Z,2.60
2022-09-03T15:47:51.676Z,2.30
2022-09-03T15:53:14.740Z,2.30
2022-09-03T15:58:35.885Z,2.80
2022-09-03T16:03:45.314Z,2.80
2022-09-03T16:08:49.451Z,2.45
2022-09-03T16:14:02.295Z,3.60
2022-09-03T16:19:17.289Z,2.40
2022-09-03T16:24:48.762Z,2.60
2022-09-03T16:30:05.324Z,3.00
2022-09-03T16:35:27.717Z,2.45
2022-09-03T16:40:37.546Z,2.70
2022-09-03T16:45:42.045Z,2.70
2022-09-03T16:50:58.767Z,2.70
2022-09-03T16:56:29.702Z,2.95
2022-09-03T17:02:37.271Z,3.08
2022-09-03T17:07:57.622Z,3.45
2022-09-03T17:13:38.043Z,3.10
2022-09-03T17:19:05.086Z,3.30
2022-09-03T17:24:42.212Z,3.30
2022-09-03T17:30:00.520Z,3.58
2022-09-03T17:35:14.861Z,3.10
2022-09-03T17:40:25.923Z,3.05
2022-09-03T17:45:37.898Z,2.47
2022-09-03T17:51:12.822Z,2.63
2022-09-03T17:56:54.531Z,2.22
2022-09-03T18:02:25.896Z,2.45
2022-09-03T18:07:39.003Z,2.53
2022-09-03T18:13:03.721Z,2.40
2022-09-03T18:18:12.193Z,2.40
2022-09-03T18:23:47.279Z,2.55
2022-09-03T18:29:12.208Z,2.40
2022-09-03T18:34:32.415Z,2.72
2022-09-03T18:39:52.513Z,2.70
2022-09-03T18:45:56.261Z,2.92
2022-09-03T18:51:35.717Z,2.40
2022-09-03T18:57:07.633Z,2.25
2022-09-03T19:02:42.845Z,2.67
2022-09-03T19:08:26.009Z,2.65
2022-09-03T19:13:55.376Z,2.40
2022-09-03T19:20:01.391Z,2.38
2022-09-03T19:25:27.431Z,2.58
2022-09-03T19:30:50.634Z,2.50
2022-09-03T19:36:23.258Z,2.55
2022-09-03T19:41:58.042Z,2.63
2022-09-03T19:47:21.679Z,2.90
2022-09-03T19:53:01.414Z,2.60
2022-09-03T19:58:42.136Z,2.30
2022-09-03T20:04:01.920Z,2.90
2022-09-03T20:09:28.203Z,2.58
2022-09-03T20:14:32.714Z,2.30
2022-09-03T20:19:39.911Z,2.13
2022-09-03T20:24:59.576Z,2.70
2022-09-03T20:30:27.487Z,2.30
2022-09-03T20:35:47.490Z,2.65
2022-09-03T20:40:51.951Z,2.87
2022-09-03T20:45:56.889Z,2.30
2022-09-03T20:51:10.238Z,2.30
2022-09-03T20:56:21.517Z,2.00
2022-09-03T21:01:30.756Z,2.25
2022-09-03T21:06:44.310Z,1.98
2022-09-03T21:12:08.934Z,2.42
2022-09-03T21:17:25.550Z,2.20
2022-09-03T21:22:45.667Z,1.90
2022-09-03T21:27:53.258Z,2.03
2022-09-03T21:33:09.691Z,2.22
2022-09-03T21:38:17.125Z,2.22
2022-09-03T21:43:32.273Z,2.20
2022-09-03T21:48:38.367Z,2.35
2022-09-03T21:53:52.439Z,2.30
2022-09-03T21:59:08.136Z,2.00
2022-09-03T22:04:11.238Z,2.58
2022-09-03T22:09:24.951Z,2.13
2022-09-03T22:14:30.916Z,2.35
2022-09-03T22:19:37.624Z,2.40
2022-09-03T22:24:55.118Z,2.50
2022-09-03T22:30:03.007Z,2.42
2022-09-03T22:35:23.047Z,2.50
2022-09-03T22:40:49.103Z,2.50
2022-09-03T22:46:13.253Z,3.17
2022-09-03T22:51:21.506Z,2.72
2022-09-03T22:56:23.702Z,3.08
2022-09-03T23:01:34.642Z,2.97
2022-09-03T23:06:41.361Z,2.75
2022-09-03T23:11:50.097Z,2.70
2022-09-03T23:16:57.174Z,2.85
2022-09-03T23:22:06.986Z,3.00
2022-09-03T23:27:14.817Z,2.90
2022-09-03T23:32:16.816Z,2.90
2022-09-03T23:37:35.338Z,2.90
2022-09-03T23:43:22.496Z,3.20
2022-09-03T23:49:00.827Z,2.97
2022-09-03T23:54:20.893Z,3.33
2022-09-03T23:59:24.932Z,3.28
